Royal Melbourne — WDC2865 — position and weather

sailwx.info

Track history (hours):
 
Tides and Currents Weather Stations Pressure Air Temp Water Temp Dewpoint Dewpoint Depression Visibility Wind Speed Wind Dir Waves Ship Positions

Royal Melbourne

Owner: Harley Marine Services, Inc, Seattle, WA. More information available from US FCC via Universal Licensing System and Coast Guard Vessel Documentation Center.

Last reported at 2016-Aug-30 14:33 UTC. Time now 2016-Aug-30 15:02 UTC.
Position N 37°45' W 122°21'.

Length 30 m; draft 2 m.

Type: Tug. MMSI: 366998830.

Date/timePositionNaut miles runAvg speedWind from/ knotsBaromVisibWave heightAir tempDewpointWater temp
2016-Aug-30 14:33N 37°45' W 122°21'0 0.2
2016-Aug-30 13:34N 37°45' W 122°21'0 0.1
2016-Aug-30 12:33N 37°45' W 122°21'0 0.0
2016-Aug-30 11:33N 37°45' W 122°21'3 2.9
2016-Aug-30 10:34N 37°48' W 122°20'2 2.2
2016-Aug-30 09:33N 37°48' W 122°17'0 0.0
2016-Aug-30 08:33N 37°48' W 122°17'0 0.0
2016-Aug-30 07:34N 37°48' W 122°17'0 0.5
2016-Aug-30 06:32N 37°48' W 122°18'0 0.0
2016-Aug-30 05:32N 37°48' W 122°18'0 0.0
2016-Aug-30 04:31N 37°48' W 122°18'0 0.5
2016-Aug-30 03:32N 37°48' W 122°17'0 0.0
2016-Aug-30 02:33N 37°48' W 122°17'0 0.1
2016-Aug-30 01:28N 37°48' W 122°17'0 0.2
2016-Aug-30 00:33N 37°48' W 122°17'2 2.5
2016-Aug-29 23:33N 37°48' W 122°20'3 3.2
2016-Aug-29 22:34N 37°48' W 122°24'0 0.0
2016-Aug-29 21:33N 37°48' W 122°24'0 0.0
2016-Aug-29 20:33N 37°48' W 122°24'0 0.0
2016-Aug-29 19:32N 37°48' W 122°24'0 0.0
2016-Aug-29 18:32N 37°48' W 122°24'0 0.0
2016-Aug-29 17:23N 37°48' W 122°24'0 0.1
2016-Aug-29 16:32N 37°48' W 122°24'0 0.0
2016-Aug-29 15:32N 37°48' W 122°24'0 0.0
2016-Aug-29 14:29N 37°48' W 122°24'0 0.3
2016-Aug-29 13:34N 37°48' W 122°24'4 3.6
2016-Aug-29 12:34N 37°52' W 122°24'4 3.8
2016-Aug-29 11:33N 37°55' W 122°22'0 0.0
2016-Aug-29 10:32N 37°55' W 122°22'0 0.0
2016-Aug-29 09:32N 37°55' W 122°22'0 0.0
2016-Aug-29 08:32N 37°55' W 122°22'0 0.0
2016-Aug-29 07:26N 37°55' W 122°22'0 0.0
2016-Aug-29 06:32N 37°55' W 122°22'0 0.0
2016-Aug-29 05:32N 37°55' W 122°22'0 0.0
2016-Aug-29 04:29N 37°55' W 122°22'0 0.0
2016-Aug-29 03:32N 37°55' W 122°22'0 0.0
2016-Aug-29 02:32N 37°55' W 122°22'0 0.0
2016-Aug-29 01:33N 37°55' W 122°22'4 4.2
2016-Aug-29 00:33N 37°51' W 122°24'6 6.3
2016-Aug-28 23:33N 37°45' W 122°21'0 0.2
2016-Aug-28 22:33N 37°45' W 122°21'0 0.0
2016-Aug-28 21:33N 37°45' W 122°21'0 0.0
2016-Aug-28 20:33N 37°45' W 122°21'2 1.9
2016-Aug-28 19:33N 37°47' W 122°21'3 3.1
2016-Aug-28 18:32N 37°48' W 122°17'0 0.0
2016-Aug-28 17:32N 37°48' W 122°17'0 0.0
2016-Aug-28 16:32N 37°48' W 122°17'0 0.2
2016-Aug-28 15:32N 37°47' W 122°17'0 0.2
2016-Aug-28 14:32N 37°48' W 122°17'0 0.0
2016-Aug-28 13:32N 37°48' W 122°17'0 0.0
2016-Aug-28 12:32N 37°48' W 122°17'0 0.0
2016-Aug-28 11:32N 37°48' W 122°17'0 0.0
2016-Aug-28 10:32N 37°48' W 122°17'0 0.0
2016-Aug-28 09:32N 37°48' W 122°17'0 0.0
2016-Aug-28 08:32N 37°48' W 122°17'0 0.0
2016-Aug-28 07:32N 37°48' W 122°17'0 0.0
2016-Aug-28 06:32N 37°48' W 122°17'0 0.0
2016-Aug-28 05:32N 37°48' W 122°17'0 0.0
2016-Aug-28 04:32N 37°48' W 122°17'0 0.1
2016-Aug-28 03:34N 37°48' W 122°17'4 4.1
2016-Aug-28 02:34N 37°45' W 122°21'0 0.0
2016-Aug-28 01:31N 37°45' W 122°21'0 0.0
2016-Aug-28 00:31N 37°45' W 122°21'1 0.6
2016-Aug-27 23:27N 37°45' W 122°21'0 0.1
2016-Aug-27 22:33N 37°45' W 122°21'0 0.2
2016-Aug-27 21:33N 37°46' W 122°21'0 0.0
2016-Aug-27 20:33N 37°46' W 122°21'0 0.0
2016-Aug-27 19:33N 37°46' W 122°21'0 0.0
2016-Aug-27 18:33N 37°46' W 122°21'4 3.5
2016-Aug-27 17:33N 37°48' W 122°17'0 0.1
2016-Aug-27 16:33N 37°48' W 122°17'0 0.0
2016-Aug-27 15:33N 37°48' W 122°17'0 0.0
2016-Aug-27 14:33N 37°48' W 122°17'0 0.0
2016-Aug-27 13:33N 37°48' W 122°17'0 0.0
2016-Aug-27 12:33N 37°48' W 122°17'0 0.0
2016-Aug-27 11:30N 37°48' W 122°17'0 0.0
2016-Aug-27 10:33N 37°48' W 122°17'0 0.0
2016-Aug-27 09:33N 37°48' W 122°17'0 0.0
2016-Aug-27 08:30N 37°48' W 122°17'0 0.0
2016-Aug-27 07:33N 37°48' W 122°17'0 0.0
2016-Aug-27 06:33N 37°48' W 122°17'0 0.0
2016-Aug-27 04:33N 37°48' W 122°17'0 0.0
2016-Aug-27 03:33N 37°48' W 122°17'0 0.0
2016-Aug-27 02:33N 37°48' W 122°17'0 0.0
2016-Aug-27 01:33N 37°48' W 122°17'0 0.0
2016-Aug-27 00:33N 37°48' W 122°17'0 0.0
2016-Aug-26 23:33N 37°48' W 122°17'0 0.0
2016-Aug-26 22:33N 37°48' W 122°17'0 0.0
2016-Aug-26 21:33N 37°48' W 122°17'0 0.0
2016-Aug-26 20:33N 37°48' W 122°17'0 0.0
2016-Aug-26 19:33N 37°48' W 122°17'0 0.0
2016-Aug-26 18:33N 37°48' W 122°17'0 0.0
2016-Aug-26 17:33N 37°48' W 122°17'0 0.0
2016-Aug-26 16:33N 37°48' W 122°17'0 0.0
2016-Aug-26 15:33N 37°48' W 122°17'0 0.0
2016-Aug-26 14:34N 37°48' W 122°17'4 3.5
2016-Aug-26 13:33N 37°46' W 122°21'0 0.1
2016-Aug-26 12:32N 37°46' W 122°21'0 0.0
2016-Aug-26 11:29N 37°46' W 122°21'0 0.1
2016-Aug-26 10:28N 37°46' W 122°21'0 0.2
2016-Aug-26 09:31N 37°46' W 122°21'0 0.1
2016-Aug-26 08:31N 37°46' W 122°21'0 0.4
2016-Aug-26 07:34N 37°47' W 122°21'3 3.2
2016-Aug-26 06:31N 37°48' W 122°17'0 0.0
2016-Aug-26 04:31N 37°48' W 122°17'0 0.0
2016-Aug-26 03:31N 37°48' W 122°17'0 0.0
2016-Aug-26 02:31N 37°48' W 122°17'0 0.0
2016-Aug-26 01:31N 37°48' W 122°17'0 0.0
2016-Aug-26 00:31N 37°48' W 122°17'0 0.0
2016-Aug-25 23:31N 37°48' W 122°17'0 0.0
2016-Aug-25 22:31N 37°48' W 122°17'0 0.0
2016-Aug-25 21:31N 37°48' W 122°17'0 0.0
2016-Aug-25 20:31N 37°48' W 122°17'0 0.0
2016-Aug-25 19:31N 37°48' W 122°17'0 0.0
2016-Aug-25 18:31N 37°48' W 122°17'0 0.0
2016-Aug-25 17:31N 37°48' W 122°17'0 0.0
2016-Aug-25 16:31N 37°48' W 122°17'0 0.0
2016-Aug-25 15:31N 37°48' W 122°17'0 0.0
2016-Aug-25 14:31N 37°48' W 122°17'0 0.0
2016-Aug-25 13:31N 37°48' W 122°17'0 0.0
2016-Aug-25 12:31N 37°48' W 122°17'0 0.0
2016-Aug-25 11:34N 37°48' W 122°17'0 0.0
2016-Aug-25 10:33N 37°48' W 122°17'0 0.0
2016-Aug-25 09:34N 37°48' W 122°17'0 0.0
2016-Aug-25 08:33N 37°48' W 122°17'3 3.4
2016-Aug-25 07:34N 37°49' W 122°21'6 6.0
2016-Aug-25 06:34N 37°54' W 122°23'1 0.5
2016-Aug-25 04:24N 37°55' W 122°22'0 0.0
2016-Aug-25 03:34N 37°54' W 122°22'0 0.4
2016-Aug-25 02:33N 37°55' W 122°22'2 2.1
2016-Aug-25 01:32N 37°54' W 122°24'6 6.6
2016-Aug-25 00:33N 37°49' W 122°21'3 3.1
2016-Aug-24 23:31N 37°48' W 122°17'0 0.0
2016-Aug-24 22:28N 37°48' W 122°17'0 0.0
2016-Aug-24 21:31N 37°48' W 122°17'0 0.0
2016-Aug-24 20:31N 37°48' W 122°17'0 0.0
2016-Aug-24 19:31N 37°48' W 122°17'0 0.0
2016-Aug-24 18:31N 37°48' W 122°17'0 0.0
2016-Aug-24 17:28N 37°48' W 122°17'0 0.0
2016-Aug-24 16:31N 37°48' W 122°17'0 0.0
2016-Aug-24 15:31N 37°48' W 122°17'0 0.0
2016-Aug-24 14:28N 37°48' W 122°17'0 0.0
2016-Aug-24 13:25N 37°48' W 122°17'0 0.0
2016-Aug-24 12:30N 37°48' W 122°17'0 0.0
2016-Aug-24 11:34N 37°48' W 122°17'0 0.0
2016-Aug-24 10:33N 37°48' W 122°17'0 0.0
2016-Aug-24 09:28N 37°48' W 122°17'0 0.0
2016-Aug-24 08:33N 37°48' W 122°17'0 0.0
2016-Aug-24 07:34N 37°48' W 122°17'0 0.0
2016-Aug-24 06:33N 37°48' W 122°17'0 0.0
2016-Aug-24 04:33N 37°48' W 122°17'0 0.0
2016-Aug-24 03:33N 37°48' W 122°17'0 0.0
2016-Aug-24 02:33N 37°48' W 122°17'0 0.0
2016-Aug-24 01:30N 37°48' W 122°17'0 0.0
2016-Aug-24 00:33N 37°48' W 122°17'0 0.0
2016-Aug-23 23:27N 37°48' W 122°17'0 0.0
2016-Aug-23 22:33N 37°48' W 122°17'7 6.8
2016-Aug-23 21:33N 37°52' W 122°24'3 2.7
2016-Aug-23 20:17N 37°55' W 122°22'0 0.0
2016-Aug-23 19:32N 37°55' W 122°22'0 0.0
2016-Aug-23 18:32N 37°55' W 122°22'0 0.0
2016-Aug-23 17:32N 37°55' W 122°22'0 0.0
2016-Aug-23 16:26N 37°55' W 122°22'2 1.9
2016-Aug-23 15:33N 37°54' W 122°24'8 7.8
2016-Aug-23 14:33N 37°48' W 122°19'1 1.5
2016-Aug-23 13:33N 37°48' W 122°17'0 0.0
2016-Aug-23 12:33N 37°48' W 122°17'0 0.0
2016-Aug-23 11:33N 37°48' W 122°17'0 0.0
2016-Aug-23 10:34N 37°48' W 122°17'0 0.0
2016-Aug-23 09:34N 37°48' W 122°17'0 0.0
2016-Aug-23 08:33N 37°48' W 122°17'0 0.0
2016-Aug-23 07:33N 37°48' W 122°17'0 0.0
2016-Aug-23 06:33N 37°48' W 122°17'0 0.0
2016-Aug-23 05:33N 37°48' W 122°17'0 0.0
2016-Aug-23 04:34N 37°48' W 122°17'0 0.0
2016-Aug-23 03:33N 37°48' W 122°17'0 0.0
2016-Aug-23 02:33N 37°48' W 122°17'0 0.0
2016-Aug-23 01:33N 37°48' W 122°17'0 0.0
2016-Aug-23 00:33N 37°48' W 122°17'0 0.0
2016-Aug-22 23:33N 37°48' W 122°17'0 0.0
2016-Aug-22 22:33N 37°48' W 122°17'0 0.0
2016-Aug-22 21:33N 37°48' W 122°17'0 0.0
2016-Aug-22 20:33N 37°48' W 122°17'0 0.0
2016-Aug-22 19:33N 37°48' W 122°17'0 0.0
2016-Aug-22 18:33N 37°48' W 122°17'0 0.0
2016-Aug-22 17:33N 37°48' W 122°17'0 0.0
2016-Aug-22 16:33N 37°48' W 122°17'0 0.0
2016-Aug-22 15:33N 37°48' W 122°17'0 0.0
2016-Aug-22 14:33N 37°48' W 122°17'0 0.0
2016-Aug-22 13:33N 37°48' W 122°17'0 0.0
2016-Aug-22 12:33N 37°48' W 122°17'0 0.0
2016-Aug-22 11:33N 37°48' W 122°17'0 0.0
2016-Aug-22 10:33N 37°48' W 122°17'0 0.0
2016-Aug-22 09:34N 37°48' W 122°17'0 0.0
2016-Aug-22 08:33N 37°48' W 122°17'0 0.0
2016-Aug-22 07:33N 37°48' W 122°17'0 0.0
2016-Aug-22 06:33N 37°48' W 122°17'0 0.0
2016-Aug-22 05:33N 37°48' W 122°17'3 2.8
2016-Aug-22 04:33N 37°48' W 122°20'2 1.6
2016-Aug-22 03:32N 37°46' W 122°20'0 0.0
2016-Aug-22 02:32N 37°46' W 122°20'0 0.0
2016-Aug-22 01:32N 37°46' W 122°20'0 0.1
2016-Aug-22 00:32N 37°46' W 122°20'0 0.1
2016-Aug-21 23:29N 37°46' W 122°20'0 0.1
2016-Aug-21 22:32N 37°46' W 122°20'0 0.1
2016-Aug-21 21:32N 37°46' W 122°20'0 0.0
2016-Aug-21 20:32N 37°46' W 122°20'0 0.0
2016-Aug-21 19:32N 37°46' W 122°20'1 0.8
2016-Aug-21 18:33N 37°47' W 122°20'3 2.6
2016-Aug-21 17:31N 37°48' W 122°17'0 0.0
2016-Aug-21 16:25N 37°48' W 122°17'0 0.0
2016-Aug-21 15:31N 37°48' W 122°17'0 0.0
2016-Aug-21 14:33N 37°48' W 122°17'0 0.0
2016-Aug-21 13:33N 37°48' W 122°17'0 0.0
2016-Aug-21 12:30N 37°48' W 122°17'0 0.0
2016-Aug-21 11:33N 37°48' W 122°17'0 0.0
2016-Aug-21 10:34N 37°48' W 122°17'0 0.0
2016-Aug-21 09:33N 37°48' W 122°17'0 0.0
2016-Aug-21 08:33N 37°48' W 122°17'0 0.0
2016-Aug-21 07:33N 37°48' W 122°17'0 0.0
2016-Aug-21 06:33N 37°48' W 122°17'0 0.0
2016-Aug-21 05:30N 37°48' W 122°17'0 0.0
2016-Aug-21 04:33N 37°48' W 122°17'4 3.5
2016-Aug-21 03:33N 37°47' W 122°21'2 1.5
2016-Aug-21 02:28N 37°45' W 122°21'0 0.0
2016-Aug-21 01:31N 37°45' W 122°21'0 0.0
2016-Aug-21 00:31N 37°45' W 122°21'0 0.0
2016-Aug-20 23:31N 37°45' W 122°21'1 1.2
2016-Aug-20 22:33N 37°44' W 122°20'0 0.1
2016-Aug-20 21:30N 37°44' W 122°20'0 0.0
2016-Aug-20 20:24N 37°44' W 122°20'0 0.0
2016-Aug-20 19:06N 37°44' W 122°20'0 0.0
2016-Aug-20 18:30N 37°44' W 122°20'0 0.1
2016-Aug-20 17:34N 37°44' W 122°20'7 6.6
2016-Aug-20 16:33N 37°50' W 122°23'5 4.7
2016-Aug-20 15:33N 37°55' W 122°22'  
Track history (hours):
 
Tides and Currents Weather Stations Pressure Air Temp Water Temp Dewpoint Dewpoint Depression Visibility Wind Speed Wind Dir Waves Ship Positions

Royal Melbourne

Owner: Harley Marine Services, Inc, Seattle, WA. More information available from US FCC via Universal Licensing System and Coast Guard Vessel Documentation Center.

Last reported at 2016-Aug-30 14:33 UTC. Time now 2016-Aug-30 15:02 UTC.
Position N 37°45' W 122°21'.

Length 30 m; draft 2 m.

Type: Tug. MMSI: 366998830.

Date/timePositionNaut miles runAvg speedWind from/ knotsBaromVisibWave heightAir tempDewpointWater temp
2016-Aug-30 14:33N 37°45' W 122°21'0 0.2
2016-Aug-30 13:34N 37°45' W 122°21'0 0.1
2016-Aug-30 12:33N 37°45' W 122°21'0 0.0
2016-Aug-30 11:33N 37°45' W 122°21'3 2.9
2016-Aug-30 10:34N 37°48' W 122°20'2 2.2
2016-Aug-30 09:33N 37°48' W 122°17'0 0.0
2016-Aug-30 08:33N 37°48' W 122°17'0 0.0
2016-Aug-30 07:34N 37°48' W 122°17'0 0.5
2016-Aug-30 06:32N 37°48' W 122°18'0 0.0
2016-Aug-30 05:32N 37°48' W 122°18'0 0.0
2016-Aug-30 04:31N 37°48' W 122°18'0 0.5
2016-Aug-30 03:32N 37°48' W 122°17'0 0.0
2016-Aug-30 02:33N 37°48' W 122°17'0 0.1
2016-Aug-30 01:28N 37°48' W 122°17'0 0.2
2016-Aug-30 00:33N 37°48' W 122°17'2 2.5
2016-Aug-29 23:33N 37°48' W 122°20'3 3.2
2016-Aug-29 22:34N 37°48' W 122°24'0 0.0
2016-Aug-29 21:33N 37°48' W 122°24'0 0.0
2016-Aug-29 20:33N 37°48' W 122°24'0 0.0
2016-Aug-29 19:32N 37°48' W 122°24'0 0.0
2016-Aug-29 18:32N 37°48' W 122°24'0 0.0
2016-Aug-29 17:23N 37°48' W 122°24'0 0.1
2016-Aug-29 16:32N 37°48' W 122°24'0 0.0
2016-Aug-29 15:32N 37°48' W 122°24'0 0.0
2016-Aug-29 14:29N 37°48' W 122°24'0 0.3
2016-Aug-29 13:34N 37°48' W 122°24'4 3.6
2016-Aug-29 12:34N 37°52' W 122°24'4 3.8
2016-Aug-29 11:33N 37°55' W 122°22'0 0.0
2016-Aug-29 10:32N 37°55' W 122°22'0 0.0
2016-Aug-29 09:32N 37°55' W 122°22'0 0.0
2016-Aug-29 08:32N 37°55' W 122°22'0 0.0
2016-Aug-29 07:26N 37°55' W 122°22'0 0.0
2016-Aug-29 06:32N 37°55' W 122°22'0 0.0
2016-Aug-29 05:32N 37°55' W 122°22'0 0.0
2016-Aug-29 04:29N 37°55' W 122°22'0 0.0
2016-Aug-29 03:32N 37°55' W 122°22'0 0.0
2016-Aug-29 02:32N 37°55' W 122°22'0 0.0
2016-Aug-29 01:33N 37°55' W 122°22'4 4.2
2016-Aug-29 00:33N 37°51' W 122°24'6 6.3
2016-Aug-28 23:33N 37°45' W 122°21'0 0.2
2016-Aug-28 22:33N 37°45' W 122°21'0 0.0
2016-Aug-28 21:33N 37°45' W 122°21'0 0.0
2016-Aug-28 20:33N 37°45' W 122°21'2 1.9
2016-Aug-28 19:33N 37°47' W 122°21'3 3.1
2016-Aug-28 18:32N 37°48' W 122°17'0 0.0
2016-Aug-28 17:32N 37°48' W 122°17'0 0.0
2016-Aug-28 16:32N 37°48' W 122°17'0 0.2
2016-Aug-28 15:32N 37°47' W 122°17'0 0.2
2016-Aug-28 14:32N 37°48' W 122°17'0 0.0
2016-Aug-28 13:32N 37°48' W 122°17'0 0.0
2016-Aug-28 12:32N 37°48' W 122°17'0 0.0
2016-Aug-28 11:32N 37°48' W 122°17'0 0.0
2016-Aug-28 10:32N 37°48' W 122°17'0 0.0
2016-Aug-28 09:32N 37°48' W 122°17'0 0.0
2016-Aug-28 08:32N 37°48' W 122°17'0 0.0
2016-Aug-28 07:32N 37°48' W 122°17'0 0.0
2016-Aug-28 06:32N 37°48' W 122°17'0 0.0
2016-Aug-28 05:32N 37°48' W 122°17'0 0.0
2016-Aug-28 04:32N 37°48' W 122°17'0 0.1
2016-Aug-28 03:34N 37°48' W 122°17'4 4.1
2016-Aug-28 02:34N 37°45' W 122°21'0 0.0
2016-Aug-28 01:31N 37°45' W 122°21'0 0.0
2016-Aug-28 00:31N 37°45' W 122°21'1 0.6
2016-Aug-27 23:27N 37°45' W 122°21'0 0.1
2016-Aug-27 22:33N 37°45' W 122°21'0 0.2
2016-Aug-27 21:33N 37°46' W 122°21'0 0.0
2016-Aug-27 20:33N 37°46' W 122°21'0 0.0
2016-Aug-27 19:33N 37°46' W 122°21'0 0.0
2016-Aug-27 18:33N 37°46' W 122°21'4 3.5
2016-Aug-27 17:33N 37°48' W 122°17'0 0.1
2016-Aug-27 16:33N 37°48' W 122°17'0 0.0
2016-Aug-27 15:33N 37°48' W 122°17'0 0.0
2016-Aug-27 14:33N 37°48' W 122°17'0 0.0
2016-Aug-27 13:33N 37°48' W 122°17'0 0.0
2016-Aug-27 12:33N 37°48' W 122°17'0 0.0
2016-Aug-27 11:30N 37°48' W 122°17'0 0.0
2016-Aug-27 10:33N 37°48' W 122°17'0 0.0
2016-Aug-27 09:33N 37°48' W 122°17'0 0.0
2016-Aug-27 08:30N 37°48' W 122°17'0 0.0
2016-Aug-27 07:33N 37°48' W 122°17'0 0.0
2016-Aug-27 06:33N 37°48' W 122°17'0 0.0
2016-Aug-27 04:33N 37°48' W 122°17'0 0.0
2016-Aug-27 03:33N 37°48' W 122°17'0 0.0
2016-Aug-27 02:33N 37°48' W 122°17'0 0.0
2016-Aug-27 01:33N 37°48' W 122°17'0 0.0
2016-Aug-27 00:33N 37°48' W 122°17'0 0.0
2016-Aug-26 23:33N 37°48' W 122°17'0 0.0
2016-Aug-26 22:33N 37°48' W 122°17'0 0.0
2016-Aug-26 21:33N 37°48' W 122°17'0 0.0
2016-Aug-26 20:33N 37°48' W 122°17'0 0.0
2016-Aug-26 19:33N 37°48' W 122°17'0 0.0
2016-Aug-26 18:33N 37°48' W 122°17'0 0.0
2016-Aug-26 17:33N 37°48' W 122°17'0 0.0
2016-Aug-26 16:33N 37°48' W 122°17'0 0.0
2016-Aug-26 15:33N 37°48' W 122°17'0 0.0
2016-Aug-26 14:34N 37°48' W 122°17'4 3.5
2016-Aug-26 13:33N 37°46' W 122°21'0 0.1
2016-Aug-26 12:32N 37°46' W 122°21'0 0.0
2016-Aug-26 11:29N 37°46' W 122°21'0 0.1
2016-Aug-26 10:28N 37°46' W 122°21'0 0.2
2016-Aug-26 09:31N 37°46' W 122°21'0 0.1
2016-Aug-26 08:31N 37°46' W 122°21'0 0.4
2016-Aug-26 07:34N 37°47' W 122°21'3 3.2
2016-Aug-26 06:31N 37°48' W 122°17'0 0.0
2016-Aug-26 04:31N 37°48' W 122°17'0 0.0
2016-Aug-26 03:31N 37°48' W 122°17'0 0.0
2016-Aug-26 02:31N 37°48' W 122°17'0 0.0
2016-Aug-26 01:31N 37°48' W 122°17'0 0.0
2016-Aug-26 00:31N 37°48' W 122°17'0 0.0
2016-Aug-25 23:31N 37°48' W 122°17'0 0.0
2016-Aug-25 22:31N 37°48' W 122°17'0 0.0
2016-Aug-25 21:31N 37°48' W 122°17'0 0.0
2016-Aug-25 20:31N 37°48' W 122°17'0 0.0
2016-Aug-25 19:31N 37°48' W 122°17'0 0.0
2016-Aug-25 18:31N 37°48' W 122°17'0 0.0
2016-Aug-25 17:31N 37°48' W 122°17'0 0.0
2016-Aug-25 16:31N 37°48' W 122°17'0 0.0
2016-Aug-25 15:31N 37°48' W 122°17'0 0.0
2016-Aug-25 14:31N 37°48' W 122°17'0 0.0
2016-Aug-25 13:31N 37°48' W 122°17'0 0.0
2016-Aug-25 12:31N 37°48' W 122°17'0 0.0
2016-Aug-25 11:34N 37°48' W 122°17'0 0.0
2016-Aug-25 10:33N 37°48' W 122°17'0 0.0
2016-Aug-25 09:34N 37°48' W 122°17'0 0.0
2016-Aug-25 08:33N 37°48' W 122°17'3 3.4
2016-Aug-25 07:34N 37°49' W 122°21'6 6.0
2016-Aug-25 06:34N 37°54' W 122°23'1 0.5
2016-Aug-25 04:24N 37°55' W 122°22'0 0.0
2016-Aug-25 03:34N 37°54' W 122°22'0 0.4
2016-Aug-25 02:33N 37°55' W 122°22'2 2.1
2016-Aug-25 01:32N 37°54' W 122°24'6 6.6
2016-Aug-25 00:33N 37°49' W 122°21'3 3.1
2016-Aug-24 23:31N 37°48' W 122°17'0 0.0
2016-Aug-24 22:28N 37°48' W 122°17'0 0.0
2016-Aug-24 21:31N 37°48' W 122°17'0 0.0
2016-Aug-24 20:31N 37°48' W 122°17'0 0.0
2016-Aug-24 19:31N 37°48' W 122°17'0 0.0
2016-Aug-24 18:31N 37°48' W 122°17'0 0.0
2016-Aug-24 17:28N 37°48' W 122°17'0 0.0
2016-Aug-24 16:31N 37°48' W 122°17'0 0.0
2016-Aug-24 15:31N 37°48' W 122°17'0 0.0
2016-Aug-24 14:28N 37°48' W 122°17'0 0.0
2016-Aug-24 13:25N 37°48' W 122°17'0 0.0
2016-Aug-24 12:30N 37°48' W 122°17'0 0.0
2016-Aug-24 11:34N 37°48' W 122°17'0 0.0
2016-Aug-24 10:33N 37°48' W 122°17'0 0.0
2016-Aug-24 09:28N 37°48' W 122°17'0 0.0
2016-Aug-24 08:33N 37°48' W 122°17'0 0.0
2016-Aug-24 07:34N 37°48' W 122°17'0 0.0
2016-Aug-24 06:33N 37°48' W 122°17'0 0.0
2016-Aug-24 04:33N 37°48' W 122°17'0 0.0
2016-Aug-24 03:33N 37°48' W 122°17'0 0.0
2016-Aug-24 02:33N 37°48' W 122°17'0 0.0
2016-Aug-24 01:30N 37°48' W 122°17'0 0.0
2016-Aug-24 00:33N 37°48' W 122°17'0 0.0
2016-Aug-23 23:27N 37°48' W 122°17'0 0.0
2016-Aug-23 22:33N 37°48' W 122°17'7 6.8
2016-Aug-23 21:33N 37°52' W 122°24'3 2.7
2016-Aug-23 20:17N 37°55' W 122°22'0 0.0
2016-Aug-23 19:32N 37°55' W 122°22'0 0.0
2016-Aug-23 18:32N 37°55' W 122°22'0 0.0
2016-Aug-23 17:32N 37°55' W 122°22'0 0.0
2016-Aug-23 16:26N 37°55' W 122°22'2 1.9
2016-Aug-23 15:33N 37°54' W 122°24'8 7.8
2016-Aug-23 14:33N 37°48' W 122°19'1 1.5
2016-Aug-23 13:33N 37°48' W 122°17'0 0.0
2016-Aug-23 12:33N 37°48' W 122°17'0 0.0
2016-Aug-23 11:33N 37°48' W 122°17'0 0.0
2016-Aug-23 10:34N 37°48' W 122°17'0 0.0
2016-Aug-23 09:34N 37°48' W 122°17'0 0.0
2016-Aug-23 08:33N 37°48' W 122°17'0 0.0
2016-Aug-23 07:33N 37°48' W 122°17'0 0.0
2016-Aug-23 06:33N 37°48' W 122°17'0 0.0
2016-Aug-23 05:33N 37°48' W 122°17'0 0.0
2016-Aug-23 04:34N 37°48' W 122°17'0 0.0
2016-Aug-23 03:33N 37°48' W 122°17'0 0.0
2016-Aug-23 02:33N 37°48' W 122°17'0 0.0
2016-Aug-23 01:33N 37°48' W 122°17'0 0.0
2016-Aug-23 00:33N 37°48' W 122°17'0 0.0
2016-Aug-22 23:33N 37°48' W 122°17'0 0.0
2016-Aug-22 22:33N 37°48' W 122°17'0 0.0
2016-Aug-22 21:33N 37°48' W 122°17'0 0.0
2016-Aug-22 20:33N 37°48' W 122°17'0 0.0
2016-Aug-22 19:33N 37°48' W 122°17'0 0.0
2016-Aug-22 18:33N 37°48' W 122°17'0 0.0
2016-Aug-22 17:33N 37°48' W 122°17'0 0.0
2016-Aug-22 16:33N 37°48' W 122°17'0 0.0
2016-Aug-22 15:33N 37°48' W 122°17'0 0.0
2016-Aug-22 14:33N 37°48' W 122°17'0 0.0
2016-Aug-22 13:33N 37°48' W 122°17'0 0.0
2016-Aug-22 12:33N 37°48' W 122°17'0 0.0
2016-Aug-22 11:33N 37°48' W 122°17'0 0.0
2016-Aug-22 10:33N 37°48' W 122°17'0 0.0
2016-Aug-22 09:34N 37°48' W 122°17'0 0.0
2016-Aug-22 08:33N 37°48' W 122°17'0 0.0
2016-Aug-22 07:33N 37°48' W 122°17'0 0.0
2016-Aug-22 06:33N 37°48' W 122°17'0 0.0
2016-Aug-22 05:33N 37°48' W 122°17'3 2.8
2016-Aug-22 04:33N 37°48' W 122°20'2 1.6
2016-Aug-22 03:32N 37°46' W 122°20'0 0.0
2016-Aug-22 02:32N 37°46' W 122°20'0 0.0
2016-Aug-22 01:32N 37°46' W 122°20'0 0.1
2016-Aug-22 00:32N 37°46' W 122°20'0 0.1
2016-Aug-21 23:29N 37°46' W 122°20'0 0.1
2016-Aug-21 22:32N 37°46' W 122°20'0 0.1
2016-Aug-21 21:32N 37°46' W 122°20'0 0.0
2016-Aug-21 20:32N 37°46' W 122°20'0 0.0
2016-Aug-21 19:32N 37°46' W 122°20'1 0.8
2016-Aug-21 18:33N 37°47' W 122°20'3 2.6
2016-Aug-21 17:31N 37°48' W 122°17'0 0.0
2016-Aug-21 16:25N 37°48' W 122°17'0 0.0
2016-Aug-21 15:31N 37°48' W 122°17'0 0.0
2016-Aug-21 14:33N 37°48' W 122°17'0 0.0
2016-Aug-21 13:33N 37°48' W 122°17'0 0.0
2016-Aug-21 12:30N 37°48' W 122°17'0 0.0
2016-Aug-21 11:33N 37°48' W 122°17'0 0.0
2016-Aug-21 10:34N 37°48' W 122°17'0 0.0
2016-Aug-21 09:33N 37°48' W 122°17'0 0.0
2016-Aug-21 08:33N 37°48' W 122°17'0 0.0
2016-Aug-21 07:33N 37°48' W 122°17'0 0.0
2016-Aug-21 06:33N 37°48' W 122°17'0 0.0
2016-Aug-21 05:30N 37°48' W 122°17'0 0.0
2016-Aug-21 04:33N 37°48' W 122°17'4 3.5
2016-Aug-21 03:33N 37°47' W 122°21'2 1.5
2016-Aug-21 02:28N 37°45' W 122°21'0 0.0
2016-Aug-21 01:31N 37°45' W 122°21'0 0.0
2016-Aug-21 00:31N 37°45' W 122°21'0 0.0
2016-Aug-20 23:31N 37°45' W 122°21'1 1.2
2016-Aug-20 22:33N 37°44' W 122°20'0 0.1
2016-Aug-20 21:30N 37°44' W 122°20'0 0.0
2016-Aug-20 20:24N 37°44' W 122°20'0 0.0
2016-Aug-20 19:06N 37°44' W 122°20'0 0.0
2016-Aug-20 18:30N 37°44' W 122°20'0 0.1
2016-Aug-20 17:34N 37°44' W 122°20'7 6.6
2016-Aug-20 16:33N 37°50' W 122°23'5 4.7
2016-Aug-20 15:33N 37°55' W 122°22'  

Dump ship's entire track history